sensor_id;sensor_type;location;lat;lon;timestamp;temperature;humidity
14687;DHT22;7431;49.440;11.084;2023-02-28T16:55:31;15.60;99.90
14687;DHT22;7431;49.440;11.084;2023-02-28T16:57:59;15.60;99.90
14687;DHT22;7431;49.440;11.084;2023-02-28T17:00:26;15.70;99.90
14687;DHT22;7431;49.440;11.084;2023-02-28T17:02:53;15.70;99.90
14687;DHT22;7431;49.440;11.084;2023-02-28T17:05:19;15.80;99.90
14687;DHT22;7431;49.440;11.084;2023-02-28T17:07:45;15.80;99.90
14687;DHT22;7431;49.440;11.084;2023-02-28T17:10:19;15.90;99.90
14687;DHT22;7431;49.440;11.084;2023-02-28T17:12:45;15.90;99.90
14687;DHT22;7431;49.440;11.084;2023-02-28T17:15:12;16.00;99.90
14687;DHT22;7431;49.440;11.084;2023-02-28T17:17:39;16.10;99.90
14687;DHT22;7431;49.440;11.084;2023-02-28T17:20:06;16.10;99.90
14687;DHT22;7431;49.440;11.084;2023-02-28T17:22:32;16.10;99.90
14687;DHT22;7431;49.440;11.084;2023-02-28T17:24:58;16.10;99.90
14687;DHT22;7431;49.440;11.084;2023-02-28T17:27:24;16.10;99.90
14687;DHT22;7431;49.440;11.084;2023-02-28T17:29:50;16.10;99.90
14687;DHT22;7431;49.440;11.084;2023-02-28T17:32:16;16.00;99.90
14687;DHT22;7431;49.440;11.084;2023-02-28T17:34:41;16.10;99.90
14687;DHT22;7431;49.440;11.084;2023-02-28T17:37:09;16.00;99.90
14687;DHT22;7431;49.440;11.084;2023-02-28T17:39:35;16.00;99.90
14687;DHT22;7431;49.440;11.084;2023-02-28T17:42:00;15.90;99.90
14687;DHT22;7431;49.440;11.084;2023-02-28T17:44:28;15.90;99.90
14687;DHT22;7431;49.440;11.084;2023-02-28T17:46:54;15.80;99.90
14687;DHT22;7431;49.440;11.084;2023-02-28T17:49:21;15.60;99.90
14687;DHT22;7431;49.440;11.084;2023-02-28T17:51:48;15.70;99.90
14687;DHT22;7431;49.440;11.084;2023-02-28T17:54:14;15.60;99.90
14687;DHT22;7431;49.440;11.084;2023-02-28T17:56:40;15.50;99.90
14687;DHT22;7431;49.440;11.084;2023-02-28T17:59:14;15.50;99.90
14687;DHT22;7431;49.440;11.084;2023-02-28T18:01:40;15.40;99.90
14687;DHT22;7431;49.440;11.084;2023-02-28T18:04:06;15.40;99.90
14687;DHT22;7431;49.440;11.084;2023-02-28T18:06:39;15.30;99.90
14687;DHT22;7431;49.440;11.084;2023-02-28T18:09:16;15.30;99.90
14687;DHT22;7431;49.440;11.084;2023-02-28T18:11:42;15.30;99.90
14687;DHT22;7431;49.440;11.084;2023-02-28T18:14:17;15.20;99.90
14687;DHT22;7431;49.440;11.084;2023-02-28T18:16:43;15.20;99.90
14687;DHT22;7431;49.440;11.084;2023-02-28T18:19:09;15.10;99.90
14687;DHT22;7431;49.440;11.084;2023-02-28T18:21:40;15.10;99.90
14687;DHT22;7431;49.440;11.084;2023-02-28T18:24:06;15.10;99.90
14687;DHT22;7431;49.440;11.084;2023-02-28T18:26:32;15.00;99.90
14687;DHT22;7431;49.440;11.084;2023-02-28T18:28:57;15.00;99.90
14687;DHT22;7431;49.440;11.084;2023-02-28T18:31:23;15.10;99.90
14687;DHT22;7431;49.440;11.084;2023-02-28T18:33:50;15.00;99.90
14687;DHT22;7431;49.440;11.084;2023-02-28T18:36:18;14.90;99.90
14687;DHT22;7431;49.440;11.084;2023-02-28T18:38:45;14.90;99.90
14687;DHT22;7431;49.440;11.084;2023-02-28T18:41:11;14.90;99.90
14687;DHT22;7431;49.440;11.084;2023-02-28T18:43:37;14.90;99.90
14687;DHT22;7431;49.440;11.084;2023-02-28T18:46:11;14.80;99.90
14687;DHT22;7431;49.440;11.084;2023-02-28T18:48:37;14.80;99.90
14687;DHT22;7431;49.440;11.084;2023-02-28T18:53:35;14.80;99.90
14687;DHT22;7431;49.440;11.084;2023-02-28T18:56:01;14.70;99.90
14687;DHT22;7431;49.440;11.084;2023-02-28T18:58:28;14.70;99.90
14687;DHT22;7431;49.440;11.084;2023-02-28T19:00:53;14.70;99.90
14687;DHT22;7431;49.440;11.084;2023-02-28T19:03:19;14.80;99.90
14687;DHT22;7431;49.440;11.084;2023-02-28T19:05:45;14.70;99.90
14687;DHT22;7431;49.440;11.084;2023-02-28T19:08:12;14.70;99.90
14687;DHT22;7431;49.440;11.084;2023-02-28T19:10:38;14.60;99.90
14687;DHT22;7431;49.440;11.084;2023-02-28T19:13:07;14.60;99.90
14687;DHT22;7431;49.440;11.084;2023-02-28T19:15:32;14.60;99.90
14687;DHT22;7431;49.440;11.084;2023-02-28T19:17:58;14.60;99.90
14687;DHT22;7431;49.440;11.084;2023-02-28T19:20:23;14.60;99.90
14687;DHT22;7431;49.440;11.084;2023-02-28T19:22:49;14.60;99.90
14687;DHT22;7431;49.440;11.084;2023-02-28T19:25:15;14.60;99.90
14687;DHT22;7431;49.440;11.084;2023-02-28T19:27:42;14.70;99.90
14687;DHT22;7431;49.440;11.084;2023-02-28T19:30:08;14.60;99.90
14687;DHT22;7431;49.440;11.084;2023-02-28T19:32:34;14.60;99.90
14687;DHT22;7431;49.440;11.084;2023-02-28T19:35:00;14.60;99.90
14687;DHT22;7431;49.440;11.084;2023-02-28T19:37:27;14.70;99.90
14687;DHT22;7431;49.440;11.084;2023-02-28T19:39:53;14.60;99.90
14687;DHT22;7431;49.440;11.084;2023-02-28T19:42:21;14.60;99.90
14687;DHT22;7431;49.440;11.084;2023-02-28T19:44:48;14.60;99.90
14687;DHT22;7431;49.440;11.084;2023-02-28T19:47:14;14.60;99.90
14687;DHT22;7431;49.440;11.084;2023-02-28T19:49:40;14.60;99.90
14687;DHT22;7431;49.440;11.084;2023-02-28T19:52:06;14.60;99.90
14687;DHT22;7431;49.440;11.084;2023-02-28T19:54:31;14.60;99.90
14687;DHT22;7431;49.440;11.084;2023-02-28T19:56:59;14.60;99.90
14687;DHT22;7431;49.440;11.084;2023-02-28T19:59:26;14.60;99.90
14687;DHT22;7431;49.440;11.084;2023-02-28T20:01:53;14.60;99.90
14687;DHT22;7431;49.440;11.084;2023-02-28T20:04:22;14.50;99.90
14687;DHT22;7431;49.440;11.084;2023-02-28T20:06:47;14.60;99.90
14687;DHT22;7431;49.440;11.084;2023-02-28T20:09:16;14.50;99.90
14687;DHT22;7431;49.440;11.084;2023-02-28T20:11:43;14.60;99.90
14687;DHT22;7431;49.440;11.084;2023-02-28T20:14:13;14.50;99.90
14687;DHT22;7431;49.440;11.084;2023-02-28T20:16:44;14.50;99.90
14687;DHT22;7431;49.440;11.084;2023-02-28T20:19:10;14.50;99.90
14687;DHT22;7431;49.440;11.084;2023-02-28T20:21:36;14.50;99.90
14687;DHT22;7431;49.440;11.084;2023-02-28T20:24:02;14.50;99.90
14687;DHT22;7431;49.440;11.084;2023-02-28T20:26:28;14.40;99.90
14687;DHT22;7431;49.440;11.084;2023-02-28T20:28:53;14.40;99.90
14687;DHT22;7431;49.440;11.084;2023-02-28T20:31:22;14.40;99.90
14687;DHT22;7431;49.440;11.084;2023-02-28T20:33:49;14.40;99.90
14687;DHT22;7431;49.440;11.084;2023-02-28T20:36:15;14.30;99.90
14687;DHT22;7431;49.440;11.084;2023-02-28T20:38:44;14.40;99.90
14687;DHT22;7431;49.440;11.084;2023-02-28T20:41:11;14.30;99.90
14687;DHT22;7431;49.440;11.084;2023-02-28T20:43:37;14.30;99.90
14687;DHT22;7431;49.440;11.084;2023-02-28T20:46:03;14.30;99.90
14687;DHT22;7431;49.440;11.084;2023-02-28T20:48:30;14.30;99.90
14687;DHT22;7431;49.440;11.084;2023-02-28T20:50:57;14.30;99.90
14687;DHT22;7431;49.440;11.084;2023-02-28T20:53:24;14.30;99.90
14687;DHT22;7431;49.440;11.084;2023-02-28T20:56:04;14.20;99.90
14687;DHT22;7431;49.440;11.084;2023-02-28T20:58:34;14.30;99.90
14687;DHT22;7431;49.440;11.084;2023-02-28T21:03:29;14.30;99.90
14687;DHT22;7431;49.440;11.084;2023-02-28T21:06:01;14.20;99.90
14687;DHT22;7431;49.440;11.084;2023-02-28T21:08:28;14.20;99.90
14687;DHT22;7431;49.440;11.084;2023-02-28T21:10:53;14.20;99.90
14687;DHT22;7431;49.440;11.084;2023-02-28T21:13:19;14.20;99.90
14687;DHT22;7431;49.440;11.084;2023-02-28T21:15:45;14.20;99.90
14687;DHT22;7431;49.440;11.084;2023-02-28T21:18:10;14.20;99.90
14687;DHT22;7431;49.440;11.084;2023-02-28T21:20:36;14.20;99.90
14687;DHT22;7431;49.440;11.084;2023-02-28T21:23:02;14.10;99.90
14687;DHT22;7431;49.440;11.084;2023-02-28T21:25:27;14.10;99.90
14687;DHT22;7431;49.440;11.084;2023-02-28T21:27:53;14.10;99.90
14687;DHT22;7431;49.440;11.084;2023-02-28T21:30:20;14.10;99.90
14687;DHT22;7431;49.440;11.084;2023-02-28T21:32:46;14.20;99.90
14687;DHT22;7431;49.440;11.084;2023-02-28T21:35:12;14.10;99.90
14687;DHT22;7431;49.440;11.084;2023-02-28T21:37:38;14.10;99.90
14687;DHT22;7431;49.440;11.084;2023-02-28T21:40:04;14.10;99.90
14687;DHT22;7431;49.440;11.084;2023-02-28T21:42:29;14.10;99.90
14687;DHT22;7431;49.440;11.084;2023-02-28T21:44:55;14.10;99.90
14687;DHT22;7431;49.440;11.084;2023-02-28T21:47:23;14.10;99.90
14687;DHT22;7431;49.440;11.084;2023-02-28T21:49:49;14.10;99.90
14687;DHT22;7431;49.440;11.084;2023-02-28T21:52:15;14.10;99.90
14687;DHT22;7431;49.440;11.084;2023-02-28T21:54:41;14.10;99.90
14687;DHT22;7431;49.440;11.084;2023-02-28T21:57:06;14.10;99.90
14687;DHT22;7431;49.440;11.084;2023-02-28T21:59:32;14.10;99.90
14687;DHT22;7431;49.440;11.084;2023-02-28T22:01:57;14.00;99.90
14687;DHT22;7431;49.440;11.084;2023-02-28T22:04:23;14.00;99.90
14687;DHT22;7431;49.440;11.084;2023-02-28T22:06:50;14.10;99.90
14687;DHT22;7431;49.440;11.084;2023-02-28T22:09:17;14.00;99.90
14687;DHT22;7431;49.440;11.084;2023-02-28T22:11:43;14.00;99.90
14687;DHT22;7431;49.440;11.084;2023-02-28T22:14:09;14.00;99.90
14687;DHT22;7431;49.440;11.084;2023-02-28T22:16:35;14.00;99.90
14687;DHT22;7431;49.440;11.084;2023-02-28T22:19:01;14.00;99.90
14687;DHT22;7431;49.440;11.084;2023-02-28T22:21:32;14.00;99.90
14687;DHT22;7431;49.440;11.084;2023-02-28T22:23:57;14.00;99.90
14687;DHT22;7431;49.440;11.084;2023-02-28T22:26:23;14.00;99.90
14687;DHT22;7431;49.440;11.084;2023-02-28T22:28:49;14.00;99.90
14687;DHT22;7431;49.440;11.084;2023-02-28T22:31:23;14.00;99.90
14687;DHT22;7431;49.440;11.084;2023-02-28T22:33:51;14.00;99.90
14687;DHT22;7431;49.440;11.084;2023-02-28T22:36:19;14.00;99.90
14687;DHT22;7431;49.440;11.084;2023-02-28T22:38:45;14.00;99.90
14687;DHT22;7431;49.440;11.084;2023-02-28T22:41:11;13.90;99.90
14687;DHT22;7431;49.440;11.084;2023-02-28T22:43:38;13.90;99.90
14687;DHT22;7431;49.440;11.084;2023-02-28T22:46:06;13.90;99.90
14687;DHT22;7431;49.440;11.084;2023-02-28T22:48:33;13.90;99.90
14687;DHT22;7431;49.440;11.084;2023-02-28T22:51:04;13.90;99.90
14687;DHT22;7431;49.440;11.084;2023-02-28T22:53:32;13.90;99.90
14687;DHT22;7431;49.440;11.084;2023-02-28T22:55:57;13.90;99.90
14687;DHT22;7431;49.440;11.084;2023-02-28T22:58:23;13.90;99.90
14687;DHT22;7431;49.440;11.084;2023-02-28T23:00:48;13.90;99.90
14687;DHT22;7431;49.440;11.084;2023-02-28T23:03:14;13.90;99.90
14687;DHT22;7431;49.440;11.084;2023-02-28T23:05:39;13.90;99.90
14687;DHT22;7431;49.440;11.084;2023-02-28T23:08:05;13.90;99.90
14687;DHT22;7431;49.440;11.084;2023-02-28T23:10:31;13.90;99.90
14687;DHT22;7431;49.440;11.084;2023-02-28T23:12:56;13.90;99.90
14687;DHT22;7431;49.440;11.084;2023-02-28T23:15:22;13.90;99.90
14687;DHT22;7431;49.440;11.084;2023-02-28T23:17:48;13.90;99.90
14687;DHT22;7431;49.440;11.084;2023-02-28T23:20:18;13.90;99.90
14687;DHT22;7431;49.440;11.084;2023-02-28T23:22:44;13.80;99.90
14687;DHT22;7431;49.440;11.084;2023-02-28T23:25:18;13.90;99.90
14687;DHT22;7431;49.440;11.084;2023-02-28T23:27:44;13.90;99.90
14687;DHT22;7431;49.440;11.084;2023-02-28T23:30:11;13.80;99.90
14687;DHT22;7431;49.440;11.084;2023-02-28T23:32:37;13.80;99.90
14687;DHT22;7431;49.440;11.084;2023-02-28T23:35:04;13.80;99.90
14687;DHT22;7431;49.440;11.084;2023-02-28T23:37:42;13.80;99.90
14687;DHT22;7431;49.440;11.084;2023-02-28T23:40:09;13.80;99.90
14687;DHT22;7431;49.440;11.084;2023-02-28T23:42:35;13.80;99.90
14687;DHT22;7431;49.440;11.084;2023-02-28T23:45:02;13.80;99.90
14687;DHT22;7431;49.440;11.084;2023-02-28T23:47:28;13.80;99.90
14687;DHT22;7431;49.440;11.084;2023-02-28T23:49:55;13.80;99.90
14687;DHT22;7431;49.440;11.084;2023-02-28T23:52:20;13.80;99.90
14687;DHT22;7431;49.440;11.084;2023-02-28T23:54:46;13.80;99.90
14687;DHT22;7431;49.440;11.084;2023-02-28T23:57:12;13.80;99.90
14687;DHT22;7431;49.440;11.084;2023-02-28T23:59:37;13.80;99.90
